Time;durP1;ratioP1;P1;durP2;ratioP2;P2;SDS_P1;SDS_P2;PMS_P1;PMS_P2;Temp;Humidity;BMP_temperature;BMP_pressure;BME280_temperature;BME280_humidity;BME280_pressure;Samples;Min_cycle;Max_cycle;Signal;HPM_P1;HPM_P2
2023/08/28 00:01:03;;;;;;;4.53;1.60;;;;;;;14.28;100.00;149679.00;4996403;28;20225;-61
2023/08/28 00:03:30;;;;;;;4.93;1.80;;;;;;;14.26;100.00;149672.75;4994068;28;21011;-61
2023/08/28 00:05:58;;;;;;;6.60;1.80;;;;;;;14.28;100.00;149677.75;4997058;28;20225;-61
2023/08/28 00:08:25;;;;;;;4.30;1.80;;;;;;;14.24;100.00;149669.00;4995232;28;20213;-62
2023/08/28 00:10:53;;;;;;;4.23;1.70;;;;;;;14.27;100.00;149675.25;4996683;28;20230;-61
2023/08/28 00:13:20;;;;;;;4.20;1.50;;;;;;;14.26;100.00;149672.75;4993861;28;20738;-61
2023/08/28 00:15:46;;;;;;;3.33;1.43;;;;;;;14.24;100.00;149667.78;4994588;28;20231;-61
2023/08/28 00:18:13;;;;;;;6.23;1.77;;;;;;;14.24;100.00;149667.78;4998421;28;20243;-62
2023/08/28 00:20:40;;;;;;;2.87;1.37;;;;;;;14.20;100.00;149659.00;4995098;28;20248;-61
2023/08/28 00:23:09;;;;;;;3.13;1.20;;;;;;;14.18;100.00;149654.03;4994736;28;20248;-61
2023/08/28 00:25:35;;;;;;;5.07;2.00;;;;;;;14.23;100.00;149665.28;4992391;28;20855;-60
2023/08/28 00:28:02;;;;;;;4.17;1.37;;;;;;;14.19;100.00;149656.50;4996893;28;20233;-60
2023/08/28 00:30:28;;;;;;;5.33;1.60;;;;;;;14.17;100.00;149652.78;5010487;28;20232;-59
2023/08/28 00:32:55;;;;;;;6.60;1.67;;;;;;;14.16;100.00;149650.28;5008004;28;20230;-61
2023/08/28 00:35:23;;;;;;;3.70;1.73;;;;;;;14.13;100.00;149641.53;4994072;28;20247;-62
2023/08/28 00:37:50;;;;;;;2.33;1.27;;;;;;;14.08;100.00;149630.31;5001844;28;20310;-61
2023/08/28 00:40:18;;;;;;;2.50;1.20;;;;;;;13.98;100.00;149605.34;4994557;28;20226;-60
2023/08/28 00:42:45;;;;;;;4.93;1.27;;;;;;;13.90;100.00;149586.59;4995445;28;20260;-61
2023/08/28 00:45:12;;;;;;;3.47;1.40;;;;;;;13.82;100.00;149567.91;4993844;28;20217;-60
2023/08/28 00:47:40;;;;;;;5.30;1.50;;;;;;;13.86;100.00;149577.88;4998533;28;20233;-61
2023/08/28 00:50:07;;;;;;;3.57;1.40;;;;;;;13.85;100.00;149575.41;5001900;28;20249;-60
2023/08/28 00:52:34;;;;;;;2.17;1.50;;;;;;;13.87;100.00;149579.13;4997782;28;20255;-61
2023/08/28 00:55:03;;;;;;;3.10;1.30;;;;;;;13.86;100.00;149577.88;5011832;28;20236;-60
2023/08/28 00:57:31;;;;;;;7.33;1.43;;;;;;;13.87;100.00;149579.13;4989554;28;20254;-60
2023/08/28 00:59:58;;;;;;;7.43;1.40;;;;;;;13.84;100.00;149572.91;4997037;28;20312;-60
2023/08/28 01:02:25;;;;;;;3.47;1.30;;;;;;;13.75;100.00;149550.44;4990021;28;20225;-60
2023/08/28 01:04:52;;;;;;;2.27;1.30;;;;;;;13.77;100.00;149554.19;4997661;28;20236;-60
2023/08/28 01:07:22;;;;;;;4.10;1.20;;;;;;;13.72;100.00;149544.22;5001386;28;20219;-60
2023/08/28 01:10:00;;;;;;;8.93;1.50;;;;;;;13.77;100.00;149555.44;4994604;28;20224;-60
2023/08/28 01:12:35;;;;;;;5.47;1.30;;;;;;;13.72;100.00;149544.22;4997337;28;20288;-60
2023/08/28 01:15:10;;;;;;;6.43;1.40;;;;;;;13.64;100.00;149524.25;5001017;28;20236;-60
2023/08/28 01:17:39;;;;;;;4.90;1.20;;;;;;;13.56;100.00;149504.28;4997551;28;20251;-60
2023/08/28 01:20:07;;;;;;;5.50;1.30;;;;;;;13.52;100.00;149494.28;5013589;28;20240;-60
2023/08/28 01:22:40;;;;;;;4.33;1.67;;;;;;;13.49;100.00;149486.81;5001753;28;20236;-60
2023/08/28 01:25:10;;;;;;;4.47;1.30;;;;;;;13.43;100.00;149473.06;4998849;28;20708;-60
2023/08/28 01:27:37;;;;;;;1.50;1.10;;;;;;;13.45;100.00;149476.81;4996498;28;20225;-61
2023/08/28 01:30:09;;;;;;;3.93;1.20;;;;;;;13.45;100.00;149476.81;4996914;28;20257;-59
2023/08/28 01:32:36;;;;;;;2.50;1.37;;;;;;;13.42;100.00;149471.84;4998273;28;20317;-60
2023/08/28 01:35:06;;;;;;;4.80;1.40;;;;;;;13.41;100.00;149468.00;5004039;28;20237;-60
2023/08/28 01:37:40;;;;;;;4.37;1.47;;;;;;;13.37;100.00;149458.03;5002734;28;20213;-60
2023/08/28 01:40:14;;;;;;;5.53;1.30;;;;;;;13.36;100.00;149456.81;5003868;28;20213;-60
2023/08/28 01:42:42;;;;;;;5.50;1.40;;;;;;;13.37;100.00;149458.03;5001810;28;20601;-60
2023/08/28 01:45:10;;;;;;;5.73;1.30;;;;;;;13.40;100.00;149466.78;4998903;28;20237;-60
2023/08/28 01:47:37;;;;;;;3.47;1.30;;;;;;;13.45;100.00;149476.81;5001104;28;20228;-60
2023/08/28 01:50:04;;;;;;;3.27;1.80;;;;;;;13.43;100.00;149474.31;4998152;28;20224;-61
2023/08/28 01:52:31;;;;;;;4.40;1.60;;;;;;;13.42;100.00;149471.84;4993412;28;20243;-60
2023/08/28 01:54:58;;;;;;;3.07;1.23;;;;;;;13.43;100.00;149474.31;4999036;28;20231;-60
2023/08/28 01:57:26;;;;;;;3.90;1.20;;;;;;;13.46;100.00;149480.53;5000029;28;20224;-60
2023/08/28 01:59:52;;;;;;;3.00;1.40;;;;;;;13.38;100.00;149461.81;5003797;28;20213;-60
2023/08/28 02:02:19;;;;;;;3.90;1.33;;;;;;;13.33;100.00;149448.06;4995592;28;20220;-60
2023/08/28 02:04:46;;;;;;;3.13;1.10;;;;;;;13.32;100.00;149445.56;5004632;28;20228;-60
2023/08/28 02:07:12;;;;;;;5.83;1.10;;;;;;;13.32;100.00;149446.81;4998822;28;20268;-59
2023/08/28 02:09:39;;;;;;;3.83;1.50;;;;;;;13.26;100.00;149431.84;4996431;28;20242;-59
2023/08/28 02:12:07;;;;;;;2.43;1.40;;;;;;;13.24;100.00;149428.13;5004781;28;20230;-60
2023/08/28 02:14:35;;;;;;;2.77;1.20;;;;;;;13.22;100.00;149421.88;4995325;28;20656;-59
2023/08/28 02:17:01;;;;;;;3.10;1.33;;;;;;;13.19;100.00;149414.38;4997766;28;20233;-60
2023/08/28 02:19:29;;;;;;;6.80;1.40;;;;;;;13.16;100.00;149406.91;5001356;28;20296;-59
2023/08/28 02:21:56;;;;;;;3.10;1.10;;;;;;;13.10;100.00;149394.44;5003790;28;20235;-59
2023/08/28 02:24:22;;;;;;;2.50;1.20;;;;;;;13.05;100.00;149381.94;5011474;28;20232;-60
2023/08/28 02:26:50;;;;;;;7.73;1.50;;;;;;;13.03;100.00;149375.72;4998326;28;20240;-59
2023/08/28 02:29:16;;;;;;;7.63;1.47;;;;;;;12.97;100.00;149363.25;5004434;28;20854;-59
2023/08/28 02:31:44;;;;;;;5.77;1.50;;;;;;;12.94;100.00;149355.78;4995756;28;20233;-60
2023/08/28 02:34:11;;;;;;;2.60;1.27;;;;;;;12.91;100.00;149347.03;5003529;28;20696;-60
2023/08/28 02:36:37;;;;;;;2.87;1.50;;;;;;;12.94;100.00;149354.50;4992291;28;20222;-59
2023/08/28 02:39:04;;;;;;;3.87;1.30;;;;;;;12.96;100.00;149360.75;4993856;28;20229;-59
2023/08/28 02:41:31;;;;;;;2.70;1.10;;;;;;;13.01;100.00;149371.97;5001759;28;20271;-60
2023/08/28 02:43:58;;;;;;;3.97;1.60;;;;;;;12.98;100.00;149365.75;5015795;28;20215;-59
2023/08/28 02:46:25;;;;;;;2.70;1.23;;;;;;;12.94;100.00;149355.78;4995150;28;20217;-61
2023/08/28 02:48:52;;;;;;;4.97;1.50;;;;;;;12.92;100.00;149350.78;5000285;28;20225;-60
2023/08/28 02:51:19;;;;;;;3.67;1.40;;;;;;;12.92;100.00;149349.50;5003671;28;20224;-61
2023/08/28 02:53:46;;;;;;;3.93;1.37;;;;;;;12.92;100.00;149349.50;5019473;28;20228;-61
2023/08/28 02:56:23;;;;;;;3.70;1.43;;;;;;;12.91;100.00;149348.28;5012764;28;20728;-61
2023/08/28 02:58:50;;;;;;;4.77;1.43;;;;;;;12.87;100.00;149338.31;4996149;28;20227;-60
2023/08/28 03:04:00;;;;;;;3.00;1.60;;;;;;;12.82;100.00;149327.06;5738760;23;20237;-66
2023/08/28 03:06:34;;;;;;;4.40;1.60;;;;;;;12.81;100.00;149324.56;5012774;28;20220;-63
2023/08/28 03:09:01;;;;;;;2.83;1.57;;;;;;;12.78;100.00;149317.09;5005368;28;20239;-64
2023/08/28 03:11:32;;;;;;;2.67;1.20;;;;;;;12.78;100.00;149315.84;5021342;28;20310;-64
2023/08/28 03:13:58;;;;;;;12.40;1.40;;;;;;;12.76;100.00;149312.09;5000268;28;20729;-64
2023/08/28 03:16:25;;;;;;;2.67;1.60;;;;;;;12.72;100.00;149302.13;4997643;28;20217;-64
2023/08/28 03:18:51;;;;;;;2.83;1.40;;;;;;;12.70;100.00;149298.41;4999567;28;20224;-64
2023/08/28 03:21:19;;;;;;;4.73;1.80;;;;;;;12.72;100.00;149302.13;5006697;28;20229;-65
2023/08/28 03:23:46;;;;;;;4.03;1.40;;;;;;;12.73;100.00;149303.38;4998189;28;20229;-65
2023/08/28 03:26:13;;;;;;;4.80;1.60;;;;;;;12.71;100.00;149299.66;5006377;28;20306;-65
2023/08/28 03:28:40;;;;;;;2.50;1.50;;;;;;;12.67;100.00;149290.91;5015196;28;20247;-65
2023/08/28 03:31:06;;;;;;;2.23;1.40;;;;;;;12.72;100.00;149300.88;5267656;22;20241;-67
2023/08/28 03:33:35;;;;;;;5.43;2.33;;;;;;;12.67;100.00;149289.69;5012212;28;20234;-65
2023/08/28 03:36:02;;;;;;;4.17;1.47;;;;;;;12.64;100.00;149283.44;5016280;28;20225;-65
2023/08/28 03:38:30;;;;;;;4.17;1.43;;;;;;;12.66;100.00;149287.19;5019447;28;20222;-65
2023/08/28 03:40:57;;;;;;;4.53;1.63;;;;;;;12.62;100.00;149277.22;5017932;28;20248;-65
2023/08/28 03:43:23;;;;;;;3.23;1.80;;;;;;;12.59;100.00;149270.97;4995542;28;20216;-65
2023/08/28 03:45:50;;;;;;;5.63;1.50;;;;;;;12.62;100.00;149277.22;4998413;28;20236;-65
2023/08/28 03:48:17;;;;;;;2.07;1.53;;;;;;;12.67;100.00;149289.69;5016448;28;20231;-65
2023/08/28 03:50:43;;;;;;;4.43;1.67;;;;;;;12.70;100.00;149297.16;4996945;28;20232;-65
2023/08/28 03:53:10;;;;;;;7.03;1.70;;;;;;;12.73;100.00;149304.59;5005611;28;20208;-65
2023/08/28 03:55:38;;;;;;;2.30;1.30;;;;;;;12.73;100.00;149303.38;4989095;28;20230;-65
2023/08/28 03:58:05;;;;;;;3.93;1.20;;;;;;;12.73;100.00;149304.59;4998469;28;20232;-65
2023/08/28 04:00:32;;;;;;;4.13;1.30;;;;;;;12.69;100.00;149295.91;5003506;28;20220;-65
2023/08/28 04:02:59;;;;;;;4.63;1.30;;;;;;;12.67;100.00;149289.69;5011516;28;20235;-65
2023/08/28 04:05:26;;;;;;;3.33;1.40;;;;;;;12.70;100.00;149297.16;5012983;28;20311;-65
2023/08/28 04:07:55;;;;;;;2.47;1.50;;;;;;;12.75;100.00;149308.38;5012197;28;20812;-65
2023/08/28 04:10:22;;;;;;;3.63;1.60;;;;;;;12.74;100.00;149305.88;5013196;28;20230;-65
2023/08/28 04:12:50;;;;;;;3.23;1.40;;;;;;;12.74;100.00;149307.09;5018244;28;20236;-65
2023/08/28 04:15:17;;;;;;;2.70;1.43;;;;;;;12.74;100.00;149307.09;4999653;28;20229;-65
2023/08/28 04:17:44;;;;;;;4.00;1.53;;;;;;;12.75;100.00;149308.38;5013042;28;20328;-65
2023/08/28 04:20:13;;;;;;;3.17;1.80;;;;;;;12.77;100.00;149314.59;5005735;28;20246;-65
2023/08/28 04:22:40;;;;;;;4.23;1.57;;;;;;;12.73;100.00;149304.59;4994546;28;20277;-65
2023/08/28 04:25:08;;;;;;;3.43;1.60;;;;;;;12.73;100.00;149303.38;4991658;28;20231;-65
2023/08/28 04:27:35;;;;;;;7.13;1.60;;;;;;;12.76;100.00;149310.88;4995538;28;20591;-65
2023/08/28 04:30:03;;;;;;;4.17;1.43;;;;;;;12.69;100.00;149295.91;5001293;28;20236;-65
2023/08/28 04:32:30;;;;;;;2.00;1.63;;;;;;;12.67;100.00;149290.91;4994689;28;20235;-65
2023/08/28 04:34:58;;;;;;;5.03;1.77;;;;;;;12.68;100.00;149292.19;5019069;28;20736;-65
2023/08/28 04:37:25;;;;;;;5.50;1.73;;;;;;;12.72;100.00;149302.13;4995802;28;20227;-65
2023/08/28 04:39:52;;;;;;;2.37;1.53;;;;;;;12.70;100.00;149298.41;4999035;28;20238;-65
2023/08/28 04:42:19;;;;;;;4.50;1.70;;;;;;;12.72;100.00;149302.13;5014401;28;20219;-65
2023/08/28 04:44:46;;;;;;;5.30;1.70;;;;;;;12.69;100.00;149295.91;5013031;28;21108;-65
2023/08/28 04:47:14;;;;;;;2.23;1.73;;;;;;;12.69;100.00;149294.69;4995274;28;20306;-65
2023/08/28 04:49:41;;;;;;;2.67;1.50;;;;;;;12.68;100.00;149293.41;4997087;28;20240;-65
2023/08/28 04:52:07;;;;;;;6.03;2.10;;;;;;;12.69;100.00;149294.69;4998539;28;20233;-65
2023/08/28 04:54:34;;;;;;;3.23;1.60;;;;;;;12.73;100.00;149304.59;4997639;28;20220;-65
2023/08/28 04:57:01;;;;;;;3.33;1.63;;;;;;;12.77;100.00;149314.59;5003868;28;20235;-65
2023/08/28 04:59:28;;;;;;;3.87;1.70;;;;;;;12.83;100.00;149328.34;5016622;28;20798;-65
2023/08/28 05:01:57;;;;;;;3.27;1.40;;;;;;;12.88;100.00;149339.53;5022670;28;20254;-65
2023/08/28 05:04:25;;;;;;;3.53;1.63;;;;;;;12.88;100.00;149339.53;5020723;28;20223;-65
2023/08/28 05:06:51;;;;;;;2.83;1.60;;;;;;;12.90;100.00;149344.53;5004047;28;20306;-65
2023/08/28 05:09:18;;;;;;;6.10;1.90;;;;;;;12.90;100.00;149345.78;5012583;28;20224;-65
2023/08/28 05:11:46;;;;;;;3.63;1.60;;;;;;;12.94;100.00;149354.50;5020140;28;20569;-65
2023/08/28 05:14:12;;;;;;;4.70;1.70;;;;;;;12.97;100.00;149363.25;5019073;28;20231;-65
2023/08/28 05:16:39;;;;;;;7.57;1.73;;;;;;;13.05;100.00;149381.94;5008370;28;20274;-65
2023/08/28 05:19:06;;;;;;;4.00;1.50;;;;;;;13.06;100.00;149383.22;5003522;28;20220;-65
2023/08/28 05:21:34;;;;;;;4.43;2.47;;;;;;;13.09;100.00;149391.94;5008275;28;20232;-65
2023/08/28 05:24:01;;;;;;;5.27;1.50;;;;;;;13.15;100.00;149405.69;5008108;28;20244;-65
2023/08/28 05:26:32;;;;;;;4.07;1.70;;;;;;;13.17;100.00;149409.41;4997000;28;20219;-65
2023/08/28 05:28:58;;;;;;;3.23;1.70;;;;;;;13.18;100.00;149411.88;5009044;28;20235;-65
2023/08/28 05:31:26;;;;;;;2.30;1.70;;;;;;;13.21;100.00;149420.66;5009167;28;20251;-66
2023/08/28 05:33:53;;;;;;;2.67;1.50;;;;;;;13.24;100.00;149426.88;5027782;28;20702;-65
2023/08/28 05:36:20;;;;;;;4.00;1.60;;;;;;;13.27;100.00;149434.34;5016590;28;20596;-65
2023/08/28 05:38:49;;;;;;;3.13;1.50;;;;;;;13.34;100.00;149450.53;5003833;28;20593;-65
2023/08/28 05:41:16;;;;;;;6.80;1.63;;;;;;;13.34;100.00;149451.81;5010821;28;20226;-65
2023/08/28 05:43:46;;;;;;;6.33;1.60;;;;;;;13.37;100.00;149459.31;5017851;28;20233;-65
2023/08/28 05:46:13;;;;;;;6.60;1.70;;;;;;;13.39;100.00;149463.03;5026876;28;20217;-65
2023/08/28 05:48:40;;;;;;;1.83;1.30;;;;;;;13.39;100.00;149463.03;5001126;28;20302;-65
2023/08/28 05:51:06;;;;;;;4.43;1.40;;;;;;;13.38;100.00;149460.53;5020886;28;20235;-65
2023/08/28 05:53:33;;;;;;;3.63;1.50;;;;;;;13.40;100.00;149465.53;5015748;28;20224;-65
2023/08/28 05:56:01;;;;;;;2.43;1.40;;;;;;;13.43;100.00;149473.06;5002944;28;20240;-65
2023/08/28 05:58:28;;;;;;;5.77;1.47;;;;;;;13.44;100.00;149475.56;5009608;28;20270;-65
2023/08/28 06:00:54;;;;;;;5.07;1.30;;;;;;;13.45;100.00;149476.81;5010650;28;20706;-65
2023/08/28 06:03:21;;;;;;;3.33;1.53;;;;;;;13.45;100.00;149478.03;4997782;28;20226;-65
2023/08/28 06:05:48;;;;;;;2.60;1.40;;;;;;;13.42;100.00;149471.84;5005140;28;20310;-65
2023/08/28 06:08:16;;;;;;;2.67;1.33;;;;;;;13.41;100.00;149469.34;5020303;28;20219;-65
2023/08/28 06:10:43;;;;;;;1.70;1.60;;;;;;;13.40;100.00;149465.53;5003617;28;20318;-65
2023/08/28 06:13:12;;;;;;;3.63;1.50;;;;;;;13.43;100.00;149473.06;5008870;28;20226;-65
2023/08/28 06:15:39;;;;;;;3.07;1.80;;;;;;;13.42;100.00;149470.56;4992487;28;20638;-65
2023/08/28 06:18:06;;;;;;;3.60;1.60;;;;;;;13.44;100.00;149475.56;5008203;28;20227;-65
2023/08/28 06:20:34;;;;;;;5.27;1.57;;;;;;;13.49;100.00;149486.81;5003499;28;20225;-65
2023/08/28 06:23:01;;;;;;;1.97;1.40;;;;;;;13.52;100.00;149494.28;5016792;28;20634;-65
2023/08/28 06:25:28;;;;;;;2.83;1.70;;;;;;;13.57;100.00;149506.78;4997989;28;20235;-65
2023/08/28 06:27:55;;;;;;;7.73;1.70;;;;;;;13.52;100.00;149495.53;5015674;28;20241;-65
2023/08/28 06:30:23;;;;;;;3.40;1.30;;;;;;;13.53;100.00;149498.00;5003714;28;20225;-65
2023/08/28 06:32:49;;;;;;;1.50;1.37;;;;;;;13.58;100.00;149510.50;5007670;28;20690;-64
2023/08/28 06:35:16;;;;;;;5.67;1.73;;;;;;;13.60;100.00;149513.00;5019244;28;20217;-64
2023/08/28 06:37:43;;;;;;;3.40;1.60;;;;;;;13.65;100.00;149525.47;5016188;28;20381;-64
2023/08/28 06:40:10;;;;;;;3.77;1.60;;;;;;;13.68;100.00;149534.22;5017328;28;20238;-64
2023/08/28 06:42:36;;;;;;;3.20;1.57;;;;;;;13.70;100.00;149537.94;5014471;28;20233;-64
2023/08/28 06:45:08;;;;;;;4.13;1.53;;;;;;;13.76;100.00;149552.94;5007328;28;20245;-64
2023/08/28 06:47:37;;;;;;;2.23;1.63;;;;;;;13.77;100.00;149555.44;5016865;28;20583;-64
2023/08/28 06:50:03;;;;;;;4.77;1.63;;;;;;;13.74;100.00;149547.94;5006853;28;20225;-64
2023/08/28 06:52:30;;;;;;;7.23;1.50;;;;;;;13.79;100.00;149559.16;5013968;28;20734;-64
2023/08/28 06:54:57;;;;;;;2.47;1.30;;;;;;;13.82;100.00;149567.91;5018655;28;20227;-64
2023/08/28 06:57:23;;;;;;;2.87;1.60;;;;;;;13.93;100.00;149592.88;5017435;28;20234;-64
2023/08/28 06:59:50;;;;;;;4.17;1.37;;;;;;;14.07;100.00;149626.56;5016875;28;20232;-64
2023/08/28 07:02:17;;;;;;;2.27;1.30;;;;;;;14.26;100.00;149672.75;5016355;28;20314;-64
2023/08/28 07:04:45;;;;;;;2.50;1.40;;;;;;;14.40;100.00;149706.47;5010685;28;20238;-64
2023/08/28 07:07:16;;;;;;;2.07;1.33;;;;;;;14.53;100.00;149737.66;5017332;28;20232;-64
2023/08/28 07:09:42;;;;;;;5.77;1.93;;;;;;;14.64;100.00;149765.13;5015549;28;20229;-64
2023/08/28 07:12:09;;;;;;;8.23;1.57;;;;;;;14.79;100.00;149801.41;5015589;28;20238;-64
2023/08/28 07:14:35;;;;;;;2.90;1.43;;;;;;;14.96;100.00;149842.59;5015591;28;20240;-64
2023/08/28 07:17:02;;;;;;;4.60;1.43;;;;;;;15.10;100.00;149875.06;5015454;28;20708;-64
2023/08/28 07:19:29;;;;;;;3.90;1.53;;;;;;;15.26;100.00;149915.06;5014153;28;20224;-64
2023/08/28 07:21:59;;;;;;;4.70;1.33;;;;;;;15.35;100.00;149937.53;5020897;28;20236;-64
2023/08/28 07:24:26;;;;;;;4.13;1.70;;;;;;;15.42;100.00;149953.75;5016899;28;20232;-64
2023/08/28 07:26:53;;;;;;;6.93;1.53;;;;;;;15.44;100.00;149958.75;5018515;28;20312;-64
2023/08/28 07:29:19;;;;;;;5.17;1.30;;;;;;;15.41;100.00;149950.00;5019924;28;20227;-64
2023/08/28 07:31:46;;;;;;;3.70;1.37;;;;;;;15.41;100.00;149950.00;5013825;28;20235;-64
2023/08/28 07:34:12;;;;;;;4.30;1.47;;;;;;;15.54;100.00;149981.25;5017131;28;20232;-64
2023/08/28 07:36:39;;;;;;;3.43;1.70;;;;;;;15.42;100.00;149953.75;5012091;28;20221;-65
2023/08/28 07:39:07;;;;;;;4.00;1.50;;;;;;;15.47;100.00;149966.25;5017517;28;20224;-65
2023/08/28 07:41:34;;;;;;;2.57;1.53;;;;;;;15.54;100.00;149982.47;4995215;28;20242;-65
2023/08/28 07:44:04;;;;;;;8.00;2.13;;;;;;;15.54;100.00;149982.47;5016356;28;20233;-65
2023/08/28 07:46:32;;;;;;;2.90;1.33;;;;;;;15.73;100.00;150027.47;5012936;28;20220;-65
2023/08/28 07:48:58;;;;;;;2.33;1.90;;;;;;;15.73;100.00;150028.72;5018077;28;20659;-65
2023/08/28 07:51:25;;;;;;;3.67;1.70;;;;;;;15.81;100.00;150046.22;5013575;28;20238;-65
2023/08/28 07:53:51;;;;;;;4.20;1.70;;;;;;;15.85;100.00;150056.22;5017589;28;20742;-65
2023/08/28 07:56:19;;;;;;;3.50;1.90;;;;;;;15.70;99.93;150021.22;5017773;28;20225;-65
2023/08/28 07:58:46;;;;;;;5.03;1.83;;;;;;;15.85;99.39;150056.22;5013140;28;20681;-65
2023/08/28 08:01:12;;;;;;;4.83;1.50;;;;;;;15.87;98.51;150062.50;5003657;28;20259;-65
2023/08/28 08:03:39;;;;;;;6.73;1.67;;;;;;;15.94;100.00;150080.00;5011611;28;20582;-65
2023/08/28 08:06:08;;;;;;;2.93;1.40;;;;;;;16.00;98.76;150093.72;5017551;28;20232;-65
2023/08/28 08:08:34;;;;;;;5.13;1.53;;;;;;;16.06;96.56;150108.72;5015760;28;20223;-65
2023/08/28 08:11:01;;;;;;;2.23;1.27;;;;;;;16.26;97.01;150155.00;5004218;28;20245;-66
2023/08/28 08:13:30;;;;;;;3.63;1.30;;;;;;;16.03;91.44;150100.00;5011473;28;20633;-66
2023/08/28 08:15:56;;;;;;;4.13;1.30;;;;;;;15.91;92.19;150072.50;5016938;28;20229;-66
2023/08/28 08:18:23;;;;;;;2.70;1.40;;;;;;;15.98;93.07;150087.50;5014016;28;20213;-66
2023/08/28 08:20:50;;;;;;;1.60;1.23;;;;;;;15.85;90.80;150056.22;5012858;28;20907;-66
2023/08/28 08:23:16;;;;;;;1.63;1.30;;;;;;;15.79;90.87;150043.72;5017770;28;20227;-66
2023/08/28 08:25:43;;;;;;;4.07;1.30;;;;;;;15.47;91.36;149966.25;5014222;28;20245;-65
2023/08/28 08:28:10;;;;;;;2.33;1.20;;;;;;;15.55;92.14;149983.75;5017304;28;20229;-65
2023/08/28 08:30:37;;;;;;;1.70;1.20;;;;;;;15.55;92.71;149983.75;5012829;28;20243;-65
2023/08/28 08:33:05;;;;;;;4.07;1.47;;;;;;;15.56;91.63;149987.47;5016533;28;20589;-66
2023/08/28 08:35:31;;;;;;;2.07;1.20;;;;;;;15.55;93.11;149984.97;5012424;28;20722;-66
2023/08/28 08:37:58;;;;;;;2.20;1.17;;;;;;;15.59;94.82;149993.75;5014534;28;20232;-66
2023/08/28 08:40:26;;;;;;;1.97;1.40;;;;;;;15.53;92.92;149979.97;4995951;28;20219;-66
2023/08/28 08:42:53;;;;;;;3.57;1.30;;;;;;;15.59;91.87;149994.97;5016346;28;20318;-66
2023/08/28 08:45:21;;;;;;;2.27;1.47;;;;;;;15.68;91.12;150014.97;5015283;28;20238;-66
2023/08/28 08:47:53;;;;;;;3.37;1.60;;;;;;;15.60;94.16;149996.25;5012031;28;20683;-66
2023/08/28 08:50:21;;;;;;;2.30;1.30;;;;;;;15.70;92.35;150021.22;5017398;28;20247;-66
2023/08/28 08:52:48;;;;;;;1.80;1.20;;;;;;;15.70;91.35;150021.22;4995542;28;20229;-66
2023/08/28 08:55:24;;;;;;;1.33;1.23;;;;;;;15.66;91.37;150011.25;5017079;28;20275;-66
2023/08/28 08:57:55;;;;;;;3.87;1.30;;;;;;;15.69;92.14;150017.47;5015302;28;20244;-66
2023/08/28 09:00:22;;;;;;;3.63;1.37;;;;;;;15.74;92.30;150029.97;5013564;28;20243;-66
2023/08/28 09:02:52;;;;;;;2.97;1.30;;;;;;;15.81;90.99;150047.44;5015302;28;20323;-66
2023/08/28 09:05:20;;;;;;;6.03;1.57;;;;;;;15.82;91.29;150049.94;5014380;28;20898;-66
2023/08/28 09:07:48;;;;;;;3.47;1.37;;;;;;;15.92;90.89;150073.72;5013978;28;20234;-66
2023/08/28 09:10:14;;;;;;;5.27;1.20;;;;;;;15.89;88.97;150066.28;5018831;28;20291;-66
2023/08/28 09:12:41;;;;;;;7.00;1.60;;;;;;;15.89;89.45;150067.50;5014165;28;20248;-66
2023/08/28 09:15:10;;;;;;;6.13;1.30;;;;;;;15.90;89.34;150068.78;5015195;28;20236;-66
2023/08/28 09:17:39;;;;;;;1.77;1.30;;;;;;;15.95;89.43;150081.22;4998102;28;20232;-66
2023/08/28 09:20:16;;;;;;;1.93;1.30;;;;;;;16.02;90.09;150098.72;5017218;28;20300;-66
2023/08/28 09:22:47;;;;;;;2.77;1.10;;;;;;;16.08;90.11;150113.72;5014813;28;20228;-66
2023/08/28 09:25:13;;;;;;;2.27;1.10;;;;;;;16.18;91.53;150136.22;5012868;28;21050;-66
2023/08/28 09:27:42;;;;;;;2.20;1.10;;;;;;;16.17;88.73;150135.00;5011490;28;20228;-66
2023/08/28 09:30:10;;;;;;;5.83;1.47;;;;;;;16.43;88.44;150196.22;5016793;28;20253;-66
2023/08/28 09:32:37;;;;;;;6.17;1.90;;;;;;;16.66;87.32;150252.47;5012657;28;20292;-66
2023/08/28 09:35:08;;;;;;;2.20;1.40;;;;;;;17.06;85.24;150350.03;5015818;28;20233;-66
2023/08/28 09:37:36;;;;;;;2.50;1.27;;;;;;;17.35;84.20;150420.09;5013533;28;20230;-66
2023/08/28 09:40:05;;;;;;;5.33;1.30;;;;;;;17.29;83.22;150403.78;5016163;28;20288;-66
2023/08/28 09:42:32;;;;;;;4.93;1.77;;;;;;;17.28;81.64;150402.56;5015137;28;20631;-66
2023/08/28 09:44:58;;;;;;;2.93;1.50;;;;;;;17.70;84.39;150503.88;5016709;28;20250;-66
2023/08/28 09:47:28;;;;;;;4.90;1.67;;;;;;;17.70;84.04;150503.88;5007514;28;20218;-66
2023/08/28 09:49:58;;;;;;;2.00;1.40;;;;;;;18.08;82.55;150595.25;5018647;28;20251;-67
2023/08/28 09:52:25;;;;;;;4.40;1.37;;;;;;;18.19;81.72;150621.50;5008862;28;20232;-66
2023/08/28 09:55:04;;;;;;;4.70;1.70;;;;;;;17.96;84.64;150567.66;5016526;28;20246;-67
2023/08/28 09:57:30;;;;;;;4.73;1.33;;;;;;;17.78;79.58;150522.63;5017640;28;20372;-67
2023/08/28 09:59:57;;;;;;;3.50;1.67;;;;;;;18.25;80.89;150636.50;5023442;28;20564;-66
2023/08/28 10:02:26;;;;;;;1.60;1.10;;;;;;;18.19;76.33;150622.78;5013045;28;20219;-66
2023/08/28 10:04:53;;;;;;;3.60;1.80;;;;;;;18.25;78.12;150637.78;5020825;28;20224;-66
2023/08/28 10:07:23;;;;;;;3.03;1.00;;;;;;;18.30;71.42;150649.03;5019505;28;20231;-66
2023/08/28 10:09:52;;;;;;;1.30;0.80;;;;;;;18.60;67.94;150721.63;5014281;28;20236;-66
2023/08/28 10:12:22;;;;;;;2.53;1.10;;;;;;;18.12;68.65;150605.25;5016416;28;20249;-66
2023/08/28 10:14:50;;;;;;;1.83;1.10;;;;;;;18.34;68.83;150657.81;5016283;28;20227;-66
2023/08/28 10:17:19;;;;;;;1.57;0.90;;;;;;;17.94;70.56;150561.44;5018454;28;20233;-66
2023/08/28 10:19:50;;;;;;;5.47;1.00;;;;;;;17.95;70.16;150563.94;5017310;28;20239;-66
2023/08/28 10:22:16;;;;;;;1.60;0.87;;;;;;;18.41;66.86;150675.34;5016601;28;20253;-66
2023/08/28 10:24:44;;;;;;;1.57;0.70;;;;;;;18.27;65.92;150642.78;5016038;28;20230;-66
2023/08/28 10:27:14;;;;;;;2.57;0.87;;;;;;;18.18;66.38;150620.25;5016834;28;20608;-66
2023/08/28 10:29:43;;;;;;;4.73;1.10;;;;;;;17.71;69.80;150507.59;5016777;28;20236;-66
2023/08/28 10:32:11;;;;;;;1.30;0.80;;;;;;;17.81;67.84;150530.13;5017323;28;20334;-66
2023/08/28 10:34:39;;;;;;;3.10;1.17;;;;;;;18.34;66.83;150659.03;5016309;28;20239;-66
2023/08/28 10:37:07;;;;;;;2.13;0.80;;;;;;;18.19;66.01;150621.50;5015716;28;20231;-66
2023/08/28 10:39:34;;;;;;;1.50;0.70;;;;;;;18.34;65.79;150659.03;5018049;28;20900;-66
2023/08/28 10:42:01;;;;;;;1.83;0.90;;;;;;;18.58;65.58;150716.63;5018967;28;20289;-66
2023/08/28 10:44:28;;;;;;;2.93;1.30;;;;;;;18.98;63.63;150814.31;5014834;28;20563;-66
2023/08/28 10:46:56;;;;;;;1.70;0.90;;;;;;;19.12;63.99;150846.81;5019127;28;20228;-66
2023/08/28 10:49:23;;;;;;;1.30;0.83;;;;;;;19.56;62.76;150953.28;5015287;28;20237;-67
2023/08/28 10:52:00;;;;;;;1.07;0.87;;;;;;;19.24;62.48;150875.63;5015837;28;20708;-66
2023/08/28 10:54:36;;;;;;;1.27;0.80;;;;;;;19.12;62.93;150848.09;5013375;28;20224;-67
2023/08/28 10:57:06;;;;;;;1.97;0.80;;;;;;;19.28;62.36;150886.88;5016869;28;20231;-66
2023/08/28 10:59:43;;;;;;;1.33;0.93;;;;;;;18.88;62.50;150790.44;5017223;28;20229;-66
2023/08/28 11:02:11;;;;;;;2.27;1.00;;;;;;;19.08;63.47;150838.06;5015726;28;20293;-66
2023/08/28 11:04:39;;;;;;;3.13;1.07;;;;;;;18.97;64.67;150811.81;5014969;28;20226;-66
2023/08/28 11:07:07;;;;;;;2.03;1.00;;;;;;;18.84;65.78;150780.44;5022604;28;20228;-66
2023/08/28 11:09:36;;;;;;;2.90;1.10;;;;;;;18.92;62.38;150799.25;5016096;28;20261;-67
2023/08/28 11:12:27;;;;;;;2.00;1.00;;;;;;;19.13;64.09;150850.59;5016046;28;20245;-66
2023/08/28 11:14:59;;;;;;;1.97;1.00;;;;;;;18.97;62.90;150811.81;5000978;28;20397;-67
2023/08/28 11:17:27;;;;;;;3.37;0.90;;;;;;;19.14;62.48;150853.09;5014060;28;20239;-66
2023/08/28 11:20:05;;;;;;;1.80;0.93;;;;;;;19.29;66.31;150888.16;5013495;28;20721;-67
2023/08/28 11:22:33;;;;;;;2.30;1.03;;;;;;;19.43;61.78;150921.94;5015292;28;20235;-66
2023/08/28 11:25:01;;;;;;;3.43;1.17;;;;;;;18.95;63.94;150806.75;5018311;28;20232;-67